Accueil
METAR-TAF:

METAR-TAF

Aéroports :

Nain, Terre-Neuve-et-Labrador, Canada

latitude: 56-33N, longitude: 061-41W, altitude: 6 m

Observation

Le bulletin a été fait il y a 34 minutes, à 08:00 UTC
Vent 7 kt de sud-est
Température 1°C
Humidité 80%
Pression 1021 hPa
Visibilité: 24.1 km
Ciel couvert à une hauteur de 2200 ft

METAR: CYDP 140800Z 13007KT 15SM OVC022 01/M02 A3014 RMK SC8 SLP207

Heure: 05:34 (08:34 UTC)

Prévision

Le bulletin a été fait il y a 12 heures et 54 minutes, à 19:40 UTC
Prévision valable du 13 à 20 UTC au 13 à 23 UTC
Vent 12 kt de est
Visibilité: 10 km
Nuages fragmentés à une hauteur de 1500 ft
Temporairement
du 13 à 20 UTC au 13 à 23 UTC
Visibilité: 10 km
Nuages épars à une hauteur de 800 ft
Nuages fragmentés à une hauteur de 1200 ft
faibles averses de pluie

TAF: CYDP 131940Z 1320/1323 08012KT P6SM BKN015 TEMPO 1320/1323 P6SM -SHRA SCT008 BKN012 RMK NXT FCST WILL BE ISSUED AT 140945Z

Observations et prévisions météorologiques de plus de 4000 aéroports (messages METAR et TAF).

Les stations disponibles sont représentées par des disques jaunes et rouges sur la carte.

Passer la souris dessus pour voir le nom de la station.

Cliquer dessus pour voir les observations et prévisions météorologiques.

Pour changer de carte: cliquez sur les boutons verts avec une croix noire pour zoomer, sur le bouton vert avec un tiret pour effectuer un zoom arrière, ou sur les flèches vertes pour les cartes adjacentes.


METAR-TAF: